createdAt,value
2023-05-14T00:00:00.489Z,12.97
2023-05-14T00:02:51.837Z,12.88
2023-05-14T00:05:20.400Z,12.84
2023-05-14T00:08:14.861Z,12.77
2023-05-14T00:10:45.981Z,12.78
2023-05-14T00:13:16.204Z,12.85
2023-05-14T00:15:44.824Z,12.90
2023-05-14T00:18:13.597Z,12.97
2023-05-14T00:20:41.886Z,13.04
2023-05-14T00:23:13.753Z,13.08
2023-05-14T00:25:42.238Z,13.08
2023-05-14T00:28:10.717Z,13.06
2023-05-14T00:30:39.963Z,13.07
2023-05-14T00:33:19.922Z,13.06
2023-05-14T00:36:08.539Z,13.04
2023-05-14T00:38:50.176Z,13.02
2023-05-14T00:41:28.667Z,12.99
2023-05-14T00:44:17.231Z,13.01
2023-05-14T00:46:57.696Z,12.98
2023-05-14T00:49:32.490Z,12.94
2023-05-14T00:52:16.766Z,12.95
2023-05-14T00:54:49.795Z,12.98
2023-05-14T00:57:19.044Z,12.96
2023-05-14T00:59:49.112Z,12.92
2023-05-14T01:02:28.535Z,12.91
2023-05-14T01:05:05.066Z,12.89
2023-05-14T01:07:35.789Z,12.88
2023-05-14T01:10:16.399Z,12.83
2023-05-14T01:13:04.874Z,12.78
2023-05-14T01:15:38.090Z,12.72
2023-05-14T01:18:25.502Z,12.65
2023-05-14T01:20:57.672Z,12.55
2023-05-14T01:23:35.088Z,12.51
2023-05-14T01:26:03.376Z,12.48
2023-05-14T01:28:36.528Z,12.42
2023-05-14T01:31:19.804Z,12.38
2023-05-14T01:34:01.331Z,12.35
2023-05-14T01:36:33.676Z,12.33
2023-05-14T01:39:40.609Z,12.32
2023-05-14T01:42:24.662Z,12.28
2023-05-14T01:45:34.455Z,12.26
2023-05-14T01:48:09.421Z,12.21
2023-05-14T01:50:50.206Z,12.18
2023-05-14T01:53:38.927Z,12.16
2023-05-14T01:56:10.316Z,12.14
2023-05-14T01:59:00.220Z,12.12
2023-05-14T02:01:34.831Z,12.11
2023-05-14T02:04:24.409Z,12.13
2023-05-14T02:07:05.368Z,12.16
2023-05-14T02:09:33.839Z,12.15
2023-05-14T02:12:25.364Z,12.12
2023-05-14T02:15:06.364Z,12.08
2023-05-14T02:17:40.048Z,12.07
2023-05-14T02:20:11.709Z,12.04
2023-05-14T02:22:46.227Z,12.01
2023-05-14T02:25:34.879Z,12.03
2023-05-14T02:28:10.587Z,12.04
2023-05-14T02:30:58.531Z,12.07
2023-05-14T02:33:35.654Z,12.09
2023-05-14T02:36:09.497Z,12.09
2023-05-14T02:38:39.363Z,12.09
2023-05-14T02:41:09.600Z,12.08
2023-05-14T02:43:41.390Z,12.07
2023-05-14T02:46:22.093Z,12.05
2023-05-14T02:49:10.736Z,12.04
2023-05-14T02:51:39.061Z,12.04
2023-05-14T02:54:07.937Z,12.06
2023-05-14T02:56:36.168Z,12.05
2023-05-14T02:59:04.764Z,12.06
2023-05-14T03:01:42.838Z,12.05
2023-05-14T03:04:12.023Z,12.05
2023-05-14T03:06:40.449Z,12.07
2023-05-14T03:09:09.453Z,12.06
2023-05-14T03:11:37.886Z,12.03
2023-05-14T03:14:11.726Z,12.02
2023-05-14T03:16:42.622Z,12.03
2023-05-14T03:19:27.296Z,12.08
2023-05-14T03:22:01.807Z,12.13
2023-05-14T03:24:35.028Z,12.17
2023-05-14T03:27:03.803Z,12.18
2023-05-14T03:29:35.698Z,12.16
2023-05-14T03:32:12.071Z,12.15
2023-05-14T03:35:01.496Z,12.13
2023-05-14T03:37:29.875Z,12.09
2023-05-14T03:40:01.079Z,12.04
2023-05-14T03:42:49.483Z,11.99
2023-05-14T03:45:17.785Z,11.98
2023-05-14T03:47:46.071Z,12.00
2023-05-14T03:50:14.694Z,12.04
2023-05-14T03:52:43.833Z,12.08
2023-05-14T03:55:12.653Z,12.08
2023-05-14T03:57:40.852Z,12.04
2023-05-14T04:00:12.116Z,12.02
2023-05-14T04:02:41.051Z,12.02
2023-05-14T04:05:21.167Z,12.03
2023-05-14T04:07:52.929Z,12.02
2023-05-14T04:10:21.098Z,12.02
2023-05-14T04:12:49.510Z,12.02
2023-05-14T04:15:27.112Z,12.01
2023-05-14T04:18:17.503Z,12.01
2023-05-14T04:20:46.788Z,12.00
2023-05-14T04:23:21.025Z,12.02
2023-05-14T04:25:56.683Z,12.03
2023-05-14T04:28:28.373Z,12.03
2023-05-14T04:31:05.011Z,12.00
2023-05-14T04:33:41.283Z,11.98
2023-05-14T04:36:10.315Z,11.97
2023-05-14T04:38:38.841Z,12.00
2023-05-14T04:41:07.397Z,12.01
2023-05-14T04:43:35.842Z,12.06
2023-05-14T04:46:07.850Z,12.11
2023-05-14T04:48:45.592Z,12.15
2023-05-14T04:51:34.965Z,12.21
2023-05-14T04:54:03.953Z,12.26
2023-05-14T04:56:55.320Z,12.31
2023-05-14T04:59:24.551Z,12.36
2023-05-14T05:01:53.356Z,12.39
2023-05-14T05:04:34.145Z,12.43
2023-05-14T05:07:03.472Z,12.50
2023-05-14T05:09:32.404Z,12.57
2023-05-14T05:12:30.257Z,12.64
2023-05-14T05:15:12.727Z,12.72
2023-05-14T05:18:03.094Z,12.79
2023-05-14T05:20:43.849Z,12.84
2023-05-14T05:23:21.178Z,12.87
2023-05-14T05:26:09.234Z,12.88
2023-05-14T05:28:38.087Z,12.90
2023-05-14T05:31:12.485Z,12.94
2023-05-14T05:34:01.417Z,13.03
2023-05-14T05:36:30.247Z,13.13
2023-05-14T05:39:01.935Z,13.28
2023-05-14T05:41:31.327Z,13.48
2023-05-14T05:44:02.725Z,13.74
2023-05-14T05:46:41.118Z,14.16
2023-05-14T05:49:09.488Z,14.67
2023-05-14T05:51:37.650Z,15.21
2023-05-14T05:54:14.963Z,15.63
2023-05-14T05:56:45.995Z,15.94
2023-05-14T05:59:16.032Z,16.01
2023-05-14T06:01:44.949Z,16.10
2023-05-14T06:04:15.811Z,16.33
2023-05-14T06:06:44.243Z,16.69
2023-05-14T06:09:13.565Z,17.11
2023-05-14T06:11:41.977Z,17.27
2023-05-14T06:14:10.273Z,17.24
2023-05-14T06:16:38.551Z,17.25
2023-05-14T06:19:08.658Z,17.45
2023-05-14T06:21:40.164Z,17.64
2023-05-14T06:24:08.709Z,17.90
2023-05-14T06:26:37.068Z,18.07
2023-05-14T06:29:05.996Z,18.10
2023-05-14T06:31:34.456Z,18.34
2023-05-14T06:34:02.858Z,18.58
2023-05-14T06:36:31.260Z,18.52
2023-05-14T06:38:59.537Z,18.26
2023-05-14T06:41:27.879Z,18.25
2023-05-14T06:43:56.072Z,18.08
2023-05-14T06:46:24.398Z,18.10
2023-05-14T06:48:52.753Z,18.03
2023-05-14T06:51:21.737Z,18.16
2023-05-14T06:53:50.478Z,18.31
2023-05-14T06:56:22.308Z,18.32
2023-05-14T06:58:51.070Z,18.29
2023-05-14T07:01:19.377Z,18.19
2023-05-14T07:03:47.821Z,18.04
2023-05-14T07:06:16.293Z,17.93
2023-05-14T07:08:47.382Z,17.89
2023-05-14T07:11:16.314Z,17.94
2023-05-14T07:13:45.589Z,17.93
2023-05-14T07:16:14.738Z,17.86
2023-05-14T07:18:44.005Z,17.95
2023-05-14T07:21:12.863Z,17.96
2023-05-14T07:23:41.477Z,17.77
2023-05-14T07:26:09.948Z,17.78
2023-05-14T07:28:38.552Z,17.89
2023-05-14T07:31:09.224Z,18.06
2023-05-14T07:33:38.740Z,18.05
2023-05-14T07:36:07.482Z,17.96
2023-05-14T07:38:36.021Z,18.09
2023-05-14T07:41:04.487Z,18.29
2023-05-14T07:43:33.029Z,18.48
2023-05-14T07:46:02.478Z,18.56
2023-05-14T07:48:31.375Z,18.55
2023-05-14T07:51:00.250Z,18.70
2023-05-14T07:53:28.651Z,18.88
2023-05-14T07:55:56.968Z,19.00
2023-05-14T07:58:26.991Z,18.94
2023-05-14T08:00:56.785Z,19.07
2023-05-14T08:03:25.323Z,19.27
2023-05-14T08:05:53.726Z,19.27
2023-05-14T08:08:21.847Z,19.06
2023-05-14T08:10:51.568Z,19.22
2023-05-14T08:13:19.967Z,19.34
2023-05-14T08:15:49.768Z,19.36
2023-05-14T08:18:41.603Z,19.46
2023-05-14T08:21:10.079Z,19.46
2023-05-14T08:23:38.920Z,19.51
2023-05-14T08:26:07.525Z,19.50
2023-05-14T08:28:35.832Z,19.63
2023-05-14T08:31:09.462Z,19.77
2023-05-14T08:33:40.687Z,19.74
2023-05-14T08:36:09.672Z,19.64
2023-05-14T08:38:38.285Z,19.60
2023-05-14T08:41:07.789Z,19.65
2023-05-14T08:44:22.270Z,19.73
2023-05-14T08:46:51.560Z,19.97
2023-05-14T08:49:42.251Z,20.18
2023-05-14T08:52:11.180Z,20.12
2023-05-14T08:54:40.553Z,20.01
2023-05-14T08:57:13.306Z,19.69
2023-05-14T08:59:41.862Z,19.33
2023-05-14T09:02:13.850Z,19.26
2023-05-14T09:04:46.336Z,19.44
2023-05-14T09:07:14.836Z,19.75
2023-05-14T09:09:45.239Z,20.08
2023-05-14T09:12:13.718Z,20.21
2023-05-14T09:14:42.112Z,19.98
2023-05-14T09:17:12.710Z,19.76
2023-05-14T09:19:42.840Z,19.57
2023-05-14T09:22:16.564Z,19.34
2023-05-14T09:24:45.695Z,19.16
2023-05-14T09:27:20.919Z,18.94
2023-05-14T09:29:49.082Z,18.89
2023-05-14T09:32:17.484Z,18.84
2023-05-14T09:34:45.631Z,18.96
2023-05-14T09:37:14.247Z,18.91
2023-05-14T09:39:42.925Z,18.72
2023-05-14T09:42:11.237Z,18.48
2023-05-14T09:44:39.720Z,18.17
2023-05-14T09:47:08.356Z,18.12
2023-05-14T09:49:59.458Z,18.17
2023-05-14T09:52:27.754Z,18.13
2023-05-14T09:55:00.039Z,18.06
2023-05-14T09:57:48.748Z,17.96
2023-05-14T10:00:17.529Z,17.95
2023-05-14T10:02:47.436Z,18.02
2023-05-14T10:05:16.504Z,18.10
2023-05-14T10:07:49.941Z,18.27
2023-05-14T10:10:29.975Z,18.31
2023-05-14T10:13:04.713Z,18.28
2023-05-14T10:15:43.756Z,18.14
2023-05-14T10:18:16.599Z,18.02
2023-05-14T10:20:49.200Z,17.92
2023-05-14T10:23:18.039Z,17.75
2023-05-14T10:25:46.647Z,17.62
2023-05-14T10:28:15.217Z,17.58
2023-05-14T10:30:47.108Z,17.52
2023-05-14T10:33:18.573Z,17.57
2023-05-14T10:35:55.802Z,17.66
2023-05-14T10:38:27.562Z,17.71
2023-05-14T10:41:04.843Z,17.83
2023-05-14T10:43:38.953Z,17.89
2023-05-14T10:46:09.945Z,17.97
2023-05-14T10:48:42.604Z,18.04
2023-05-14T10:51:12.688Z,18.10
2023-05-14T10:53:43.280Z,18.24
2023-05-14T10:56:15.192Z,18.38
2023-05-14T10:58:46.105Z,18.32
2023-05-14T11:01:14.502Z,18.30
2023-05-14T11:03:47.229Z,18.44
2023-05-14T11:06:16.474Z,18.41
2023-05-14T11:08:46.606Z,18.15
2023-05-14T11:11:15.482Z,17.86
2023-05-14T11:13:45.100Z,17.62
2023-05-14T11:16:23.431Z,17.46
2023-05-14T11:19:03.915Z,17.35
2023-05-14T11:21:35.102Z,17.21
2023-05-14T11:24:05.612Z,17.11
2023-05-14T11:26:34.408Z,17.08
2023-05-14T11:29:03.268Z,17.05
2023-05-14T11:31:31.762Z,17.03
2023-05-14T11:34:01.154Z,17.02
2023-05-14T11:36:29.510Z,16.99
2023-05-14T11:38:57.856Z,16.92
2023-05-14T11:41:28.341Z,16.91
2023-05-14T11:43:57.469Z,16.92
2023-05-14T11:46:26.515Z,16.90
2023-05-14T11:48:55.797Z,16.87
2023-05-14T11:51:24.883Z,16.87
2023-05-14T11:53:54.545Z,16.87
2023-05-14T11:56:24.119Z,16.87
2023-05-14T11:58:58.880Z,16.88
2023-05-14T12:01:28.895Z,16.93
2023-05-14T12:03:57.505Z,16.98
2023-05-14T12:06:31.440Z,17.06
2023-05-14T12:09:01.898Z,17.07
2023-05-14T12:11:36.340Z,17.07
2023-05-14T12:14:12.535Z,17.03
2023-05-14T12:16:42.894Z,16.96
2023-05-14T12:19:14.394Z,16.93
2023-05-14T12:21:47.395Z,16.91
2023-05-14T12:24:22.348Z,16.93
2023-05-14T12:26:51.909Z,16.95
2023-05-14T12:29:22.230Z,16.97
2023-05-14T12:31:51.038Z,17.03
2023-05-14T12:34:19.768Z,17.10
2023-05-14T12:36:48.224Z,17.10
2023-05-14T12:39:16.648Z,17.12
2023-05-14T12:41:44.871Z,17.18
2023-05-14T12:44:17.062Z,17.23
2023-05-14T12:46:48.514Z,17.23
2023-05-14T12:49:17.142Z,17.19
2023-05-14T12:51:47.152Z,17.14
2023-05-14T12:54:16.247Z,17.13
2023-05-14T12:56:44.663Z,17.12
2023-05-14T12:59:12.984Z,17.17
2023-05-14T13:01:42.409Z,17.26
2023-05-14T13:04:14.515Z,17.38
2023-05-14T13:06:42.961Z,17.69
2023-05-14T13:09:11.446Z,18.12
2023-05-14T13:11:39.989Z,18.42
2023-05-14T13:14:08.480Z,18.71
2023-05-14T13:16:37.429Z,19.08
2023-05-14T13:19:06.305Z,19.27
2023-05-14T13:21:35.010Z,19.47
2023-05-14T13:24:03.939Z,19.41
2023-05-14T13:26:32.538Z,19.18
2023-05-14T13:29:01.011Z,18.76
2023-05-14T13:31:29.774Z,18.58
2023-05-14T13:33:59.635Z,18.51
2023-05-14T13:36:48.405Z,18.43
2023-05-14T13:39:17.084Z,18.15
2023-05-14T13:41:50.873Z,17.97
2023-05-14T13:44:32.087Z,17.87
2023-05-14T13:47:03.870Z,17.76
2023-05-14T13:49:32.125Z,17.67
2023-05-14T13:52:39.780Z,17.68
2023-05-14T13:55:08.875Z,17.64
2023-05-14T13:57:39.894Z,17.63
2023-05-14T14:00:09.357Z,17.63
2023-05-14T14:02:37.888Z,17.64
2023-05-14T14:05:16.320Z,17.59
2023-05-14T14:07:50.423Z,17.54
2023-05-14T14:10:20.259Z,17.54
2023-05-14T14:12:49.302Z,17.59
2023-05-14T14:15:17.701Z,17.61
2023-05-14T14:17:46.116Z,17.62
2023-05-14T14:20:14.576Z,17.63
2023-05-14T14:22:44.823Z,17.65
2023-05-14T14:25:13.713Z,17.69
2023-05-14T14:27:42.163Z,17.74
2023-05-14T14:30:15.939Z,17.73
2023-05-14T14:32:49.108Z,17.67
2023-05-14T14:35:28.663Z,17.60
2023-05-14T14:38:06.299Z,17.55
2023-05-14T14:40:34.932Z,17.60
2023-05-14T14:43:06.669Z,17.77
2023-05-14T14:45:35.071Z,17.90
2023-05-14T14:48:23.061Z,17.99
2023-05-14T14:50:52.267Z,18.08
2023-05-14T14:53:30.052Z,18.14
2023-05-14T14:56:51.223Z,18.16
2023-05-14T14:59:19.467Z,18.19
2023-05-14T15:01:48.608Z,18.22
2023-05-14T15:04:17.418Z,18.22
2023-05-14T15:06:45.668Z,18.10
2023-05-14T15:09:37.427Z,18.00
2023-05-14T15:12:06.745Z,18.00
2023-05-14T15:14:45.368Z,18.05
2023-05-14T15:17:35.592Z,18.12
2023-05-14T15:20:45.044Z,18.05
2023-05-14T15:23:19.205Z,18.06
2023-05-14T15:25:49.650Z,18.10
2023-05-14T15:28:17.970Z,18.11
2023-05-14T15:30:48.224Z,18.12
2023-05-14T15:33:19.734Z,18.11
2023-05-14T15:35:52.912Z,18.08
2023-05-14T15:38:21.255Z,18.09
2023-05-14T15:40:51.143Z,18.08
2023-05-14T15:43:28.626Z,18.02
2023-05-14T15:46:03.349Z,17.93
2023-05-14T15:48:32.433Z,17.98
2023-05-14T15:51:01.170Z,18.00
2023-05-14T15:53:29.806Z,17.99
2023-05-14T15:55:58.295Z,18.00
2023-05-14T15:58:33.999Z,18.03
2023-05-14T16:01:05.111Z,18.08
2023-05-14T16:03:33.575Z,18.13
2023-05-14T16:06:05.677Z,18.13
2023-05-14T16:08:34.107Z,18.13
2023-05-14T16:11:06.479Z,18.16
2023-05-14T16:13:36.073Z,18.15
2023-05-14T16:16:04.868Z,18.13
2023-05-14T16:18:34.361Z,18.12
2023-05-14T16:21:03.279Z,18.16
2023-05-14T16:23:31.931Z,18.19
2023-05-14T16:26:00.276Z,18.19
2023-05-14T16:28:28.946Z,18.14
2023-05-14T16:30:57.365Z,18.05
2023-05-14T16:33:28.033Z,17.92
2023-05-14T16:35:56.729Z,17.88
2023-05-14T16:38:25.181Z,17.86
2023-05-14T16:40:53.565Z,17.83
2023-05-14T16:43:21.711Z,17.78
2023-05-14T16:45:50.845Z,17.75
2023-05-14T16:48:19.027Z,17.75
2023-05-14T16:50:47.299Z,17.74
2023-05-14T16:53:49.109Z,17.69
2023-05-14T16:56:17.491Z,17.64
2023-05-14T16:58:53.669Z,17.63
2023-05-14T17:01:22.256Z,17.62
2023-05-14T17:03:53.166Z,17.61
2023-05-14T17:06:24.548Z,17.59
2023-05-14T17:09:07.873Z,17.56
2023-05-14T17:11:39.003Z,17.51
2023-05-14T17:14:13.692Z,17.49
2023-05-14T17:16:48.133Z,17.48
2023-05-14T17:19:19.231Z,17.47
2023-05-14T17:21:57.012Z,17.44
2023-05-14T17:24:25.651Z,17.40
2023-05-14T17:27:13.109Z,17.39
2023-05-14T17:29:42.950Z,17.39
2023-05-14T17:32:11.514Z,17.40
2023-05-14T17:34:39.807Z,17.40
2023-05-14T17:37:11.955Z,17.37
2023-05-14T17:39:47.524Z,17.34
2023-05-14T17:42:16.886Z,17.32
2023-05-14T17:45:06.330Z,17.29
2023-05-14T17:47:37.813Z,17.26
2023-05-14T17:50:26.901Z,17.24
2023-05-14T17:52:56.820Z,17.22
2023-05-14T17:55:28.644Z,17.16
2023-05-14T17:58:00.507Z,17.08
2023-05-14T18:00:29.383Z,17.01
2023-05-14T18:02:57.845Z,16.96
2023-05-14T18:05:26.670Z,16.92
2023-05-14T18:07:58.499Z,16.86
2023-05-14T18:10:26.895Z,16.80
2023-05-14T18:12:56.444Z,16.72
2023-05-14T18:15:25.930Z,16.65
2023-05-14T18:17:54.784Z,16.59
2023-05-14T18:20:23.411Z,16.53
2023-05-14T18:22:54.393Z,16.44
2023-05-14T18:25:23.415Z,16.37
2023-05-14T18:27:51.899Z,16.30
2023-05-14T18:30:23.266Z,16.25
2023-05-14T18:32:51.657Z,16.20
2023-05-14T18:35:20.394Z,16.14
2023-05-14T18:37:48.809Z,16.11
2023-05-14T18:40:24.836Z,16.06
2023-05-14T18:42:53.328Z,15.97
2023-05-14T18:45:23.046Z,15.85
2023-05-14T18:47:52.589Z,15.71
2023-05-14T18:50:21.393Z,15.54
2023-05-14T18:52:49.676Z,15.35
2023-05-14T18:55:18.021Z,15.16
2023-05-14T18:57:46.322Z,15.01
2023-05-14T19:00:15.701Z,14.89
2023-05-14T19:02:44.865Z,14.75
2023-05-14T19:05:13.769Z,14.60
2023-05-14T19:07:44.232Z,14.38
2023-05-14T19:10:15.527Z,14.18
2023-05-14T19:12:43.888Z,14.00
2023-05-14T19:15:12.242Z,13.84
2023-05-14T19:17:40.662Z,13.69
2023-05-14T19:20:10.524Z,13.55
2023-05-14T19:22:39.015Z,13.42
2023-05-14T19:25:11.322Z,13.33
2023-05-14T19:27:40.675Z,13.24
2023-05-14T19:30:09.566Z,13.16
2023-05-14T19:32:38.256Z,13.07
2023-05-14T19:35:06.917Z,12.99
2023-05-14T19:37:35.675Z,12.89
2023-05-14T19:40:04.330Z,12.81
2023-05-14T19:42:32.678Z,12.75
2023-05-14T19:45:04.357Z,12.67
2023-05-14T19:47:33.005Z,12.63
2023-05-14T19:50:01.822Z,12.57
2023-05-14T19:52:31.621Z,12.53
2023-05-14T19:54:59.880Z,12.47
2023-05-14T19:57:31.759Z,12.44
2023-05-14T20:00:00.656Z,12.41
2023-05-14T20:02:29.984Z,12.38
2023-05-14T20:05:18.811Z,12.32
2023-05-14T20:08:10.703Z,12.26
2023-05-14T20:10:39.308Z,12.19
2023-05-14T20:13:08.743Z,12.15
2023-05-14T20:15:37.291Z,12.09
2023-05-14T20:18:06.654Z,12.05
2023-05-14T20:20:35.878Z,12.01
2023-05-14T20:23:24.655Z,11.97
2023-05-14T20:26:02.636Z,11.93
2023-05-14T20:28:31.531Z,11.91
2023-05-14T20:31:03.229Z,11.88
2023-05-14T20:33:31.678Z,11.85
2023-05-14T20:36:03.898Z,11.83
2023-05-14T20:38:52.913Z,11.79
2023-05-14T20:41:22.405Z,11.78
2023-05-14T20:43:58.257Z,11.77
2023-05-14T20:46:26.792Z,11.76
2023-05-14T20:49:06.790Z,11.75
2023-05-14T20:51:38.935Z,11.73
2023-05-14T20:54:07.597Z,11.70
2023-05-14T20:56:36.684Z,11.68
2023-05-14T20:59:05.120Z,11.69
2023-05-14T21:01:38.727Z,11.71
2023-05-14T21:04:15.271Z,11.77
2023-05-14T21:06:44.201Z,11.81
2023-05-14T21:09:15.417Z,11.89
2023-05-14T21:11:44.653Z,12.00
2023-05-14T21:14:12.930Z,12.11
2023-05-14T21:17:01.784Z,12.20
2023-05-14T21:19:30.792Z,12.26
2023-05-14T21:22:19.890Z,12.32
2023-05-14T21:25:09.185Z,12.36
2023-05-14T21:27:41.553Z,12.37
2023-05-14T21:30:25.484Z,12.36
2023-05-14T21:32:54.239Z,12.38
2023-05-14T21:35:22.834Z,12.44
2023-05-14T21:37:51.489Z,12.50
2023-05-14T21:40:38.462Z,12.54
2023-05-14T21:43:06.993Z,12.57
2023-05-14T21:45:35.526Z,12.59
2023-05-14T21:48:07.232Z,12.60
2023-05-14T21:50:35.896Z,12.57
2023-05-14T21:53:24.763Z,12.54
2023-05-14T21:56:22.781Z,12.68
2023-05-14T21:58:51.801Z,12.89
2023-05-14T22:01:50.561Z,12.98
2023-05-14T22:04:26.518Z,13.01
2023-05-14T22:06:56.066Z,12.99
2023-05-14T22:09:24.849Z,12.98
2023-05-14T22:11:53.166Z,12.95
2023-05-14T22:14:21.961Z,12.99
2023-05-14T22:16:50.377Z,13.04
2023-05-14T22:19:19.244Z,13.06
2023-05-14T22:21:47.507Z,13.04
2023-05-14T22:24:18.511Z,12.98
2023-05-14T22:26:52.364Z,12.88
2023-05-14T22:29:21.033Z,12.80
2023-05-14T22:31:49.562Z,12.74
2023-05-14T22:34:17.901Z,12.69
2023-05-14T22:36:46.222Z,12.62
2023-05-14T22:39:14.436Z,12.54
2023-05-14T22:41:42.970Z,12.47
2023-05-14T22:44:11.631Z,12.42
2023-05-14T22:46:41.109Z,12.39
2023-05-14T22:49:09.586Z,12.36
2023-05-14T22:51:38.110Z,12.37
2023-05-14T22:54:06.863Z,12.38
2023-05-14T22:56:36.143Z,12.37
2023-05-14T22:59:04.881Z,12.36
2023-05-14T23:01:33.242Z,12.35
2023-05-14T23:04:01.643Z,12.37
2023-05-14T23:06:30.701Z,12.41
2023-05-14T23:08:59.270Z,12.47
2023-05-14T23:11:27.500Z,12.52
2023-05-14T23:13:55.950Z,12.58
2023-05-14T23:16:24.531Z,12.65
2023-05-14T23:18:53.019Z,12.73
2023-05-14T23:21:21.405Z,12.78
2023-05-14T23:23:49.674Z,12.82
2023-05-14T23:26:18.741Z,12.89
2023-05-14T23:28:47.585Z,12.99
2023-05-14T23:31:15.897Z,13.03
2023-05-14T23:33:44.996Z,13.04
2023-05-14T23:36:13.630Z,13.05
2023-05-14T23:38:42.184Z,13.04
2023-05-14T23:41:11.005Z,13.02
2023-05-14T23:43:39.753Z,12.97
2023-05-14T23:46:09.084Z,12.96
2023-05-14T23:48:37.479Z,12.97
2023-05-14T23:51:05.784Z,12.95
2023-05-14T23:53:34.622Z,12.97
2023-05-14T23:56:03.611Z,12.97
2023-05-14T23:58:33.105Z,12.96
